Time;durP1;ratioP1;P1;durP2;ratioP2;P2;SDS_P1;SDS_P2;PMS_P1;PMS_P2;Temp;Humidity;BMP_temperature;BMP_pressure;BME280_temperature;BME280_humidity;BME280_pressure;Samples;Min_cycle;Max_cycle;Signal;HPM_P1;HPM_P2
2022/06/19 00:01:05;;;;;;;2.08;1.50;;;18.50;99.90;;;;;;5094692;28;20714;-83
2022/06/19 00:03:34;;;;;;;1.98;1.50;;;18.50;99.90;;;;;;5096290;28;20653;-83
2022/06/19 00:06:01;;;;;;;3.13;1.42;;;18.40;99.90;;;;;;5094674;28;20175;-84
2022/06/19 00:08:28;;;;;;;1.85;1.65;;;18.40;99.90;;;;;;5095973;28;20186;-84
2022/06/19 00:10:54;;;;;;;2.97;1.80;;;18.30;99.90;;;;;;5094425;28;20714;-84
2022/06/19 00:13:20;;;;;;;1.65;1.50;;;18.40;99.90;;;;;;5094779;28;20179;-84
2022/06/19 00:15:46;;;;;;;2.35;1.50;;;18.30;99.90;;;;;;5095099;28;20174;-85
2022/06/19 00:18:12;;;;;;;2.55;1.70;;;18.30;99.90;;;;;;5094330;28;20232;-84
2022/06/19 00:20:38;;;;;;;2.75;1.70;;;18.20;99.90;;;;;;5094806;28;20235;-84
2022/06/19 00:23:04;;;;;;;1.75;1.40;;;18.20;99.90;;;;;;5095437;28;20635;-83
2022/06/19 00:25:30;;;;;;;2.97;1.77;;;18.20;99.90;;;;;;5094450;28;20185;-84
2022/06/19 00:27:55;;;;;;;1.55;1.40;;;18.20;99.90;;;;;;5060611;28;20205;-84
2022/06/19 00:30:21;;;;;;;2.38;1.58;;;18.20;99.90;;;;;;5095692;28;20230;-83
2022/06/19 00:32:47;;;;;;;2.30;1.58;;;18.10;99.90;;;;;;5095995;28;20581;-84
2022/06/19 00:35:13;;;;;;;3.33;1.60;;;18.10;99.90;;;;;;5094088;28;20240;-84
2022/06/19 00:37:39;;;;;;;2.13;1.50;;;18.10;99.90;;;;;;5095427;28;20619;-84
2022/06/19 00:40:08;;;;;;;1.77;1.50;;;18.10;99.90;;;;;;5094677;28;20261;-84
2022/06/19 00:42:34;;;;;;;3.20;1.77;;;18.10;99.90;;;;;;5095629;28;20183;-83
2022/06/19 00:45:01;;;;;;;3.85;2.00;;;18.10;99.90;;;;;;5093927;28;20178;-84
2022/06/19 00:47:35;;;;;;;3.25;1.65;;;18.00;99.90;;;;;;5095729;28;20615;-84
2022/06/19 00:50:28;;;;;;;2.10;1.90;;;18.00;99.90;;;;;;5094920;28;20242;-84
2022/06/19 00:52:54;;;;;;;1.52;1.40;;;18.00;99.90;;;;;;5094885;28;20541;-84
2022/06/19 00:55:24;;;;;;;2.47;1.95;;;18.00;99.90;;;;;;5093996;28;20269;-83
2022/06/19 00:58:28;;;;;;;2.92;2.03;;;18.00;99.90;;;;;;5094941;28;20234;-83
2022/06/19 01:00:59;;;;;;;2.55;2.00;;;17.90;99.90;;;;;;5094658;28;20174;-84
2022/06/19 01:03:30;;;;;;;1.88;1.42;;;17.90;99.90;;;;;;5095573;28;20165;-83
2022/06/19 01:05:56;;;;;;;1.75;1.65;;;17.90;99.90;;;;;;5093616;28;20178;-84
2022/06/19 01:08:22;;;;;;;3.10;1.85;;;17.90;99.90;;;;;;5093620;28;20650;-83
2022/06/19 01:10:51;;;;;;;2.33;1.70;;;17.90;99.90;;;;;;5093346;28;20214;-83
2022/06/19 01:13:19;;;;;;;2.42;1.70;;;17.80;99.90;;;;;;5094516;28;20643;-83
2022/06/19 01:15:45;;;;;;;2.72;1.92;;;17.80;99.90;;;;;;5094534;28;20280;-83
2022/06/19 01:18:12;;;;;;;2.15;1.88;;;17.80;99.90;;;;;;5076332;28;20193;-83
2022/06/19 01:20:40;;;;;;;2.83;1.98;;;17.80;99.90;;;;;;5093040;28;20201;-83
2022/06/19 01:23:28;;;;;;;1.88;1.70;;;17.80;99.90;;;;;;5092905;28;20284;-83
2022/06/19 01:25:54;;;;;;;2.00;1.73;;;17.80;99.90;;;;;;5086652;28;20186;-83
2022/06/19 01:28:45;;;;;;;2.53;1.80;;;17.80;99.90;;;;;;5075974;28;20206;-84
2022/06/19 01:31:20;;;;;;;2.92;2.00;;;17.70;99.90;;;;;;5092385;28;20614;-83
2022/06/19 01:33:55;;;;;;;1.90;1.67;;;17.70;99.90;;;;;;5094206;28;20510;-83
2022/06/19 01:36:22;;;;;;;3.00;1.88;;;17.70;99.90;;;;;;5092915;28;20173;-83
2022/06/19 01:38:51;;;;;;;3.03;2.15;;;17.70;99.90;;;;;;5093067;28;20178;-83
2022/06/19 01:41:25;;;;;;;2.88;2.30;;;17.60;99.90;;;;;;5093360;28;20571;-83
2022/06/19 01:43:51;;;;;;;6.15;2.25;;;17.60;99.90;;;;;;5093047;28;20171;-83
2022/06/19 01:46:19;;;;;;;3.20;2.17;;;17.70;99.90;;;;;;5092651;28;20627;-83
2022/06/19 01:48:45;;;;;;;2.15;1.95;;;17.60;99.90;;;;;;5094188;28;20194;-83
2022/06/19 01:51:10;;;;;;;2.97;2.10;;;17.60;99.90;;;;;;5092456;28;20222;-83
2022/06/19 01:53:48;;;;;;;2.28;1.75;;;17.60;99.90;;;;;;5092195;28;20235;-83
2022/06/19 01:56:14;;;;;;;2.65;2.17;;;17.60;99.90;;;;;;5092561;28;20174;-83
2022/06/19 01:58:50;;;;;;;2.28;1.80;;;17.60;99.90;;;;;;5093985;28;20239;-83
2022/06/19 02:01:15;;;;;;;1.67;1.48;;;17.60;99.90;;;;;;5093439;28;20345;-83
2022/06/19 02:03:46;;;;;;;2.60;2.10;;;17.60;99.90;;;;;;5092569;28;20532;-83
2022/06/19 02:06:15;;;;;;;4.05;2.10;;;17.50;99.90;;;;;;5093389;28;20167;-83
2022/06/19 02:08:43;;;;;;;3.22;2.35;;;17.50;99.90;;;;;;5093755;28;20265;-83
2022/06/19 02:11:11;;;;;;;5.25;2.28;;;17.50;99.90;;;;;;5092251;28;20206;-84
2022/06/19 02:13:38;;;;;;;2.80;2.17;;;17.50;99.90;;;;;;5093661;28;20183;-83
2022/06/19 02:16:08;;;;;;;2.85;1.88;;;17.50;99.90;;;;;;5093289;28;20254;-84
2022/06/19 02:18:38;;;;;;;2.38;1.90;;;17.50;99.90;;;;;;5092068;28;20200;-84
2022/06/19 02:21:11;;;;;;;2.55;1.95;;;17.50;99.90;;;;;;5092313;28;20178;-83
2022/06/19 02:23:38;;;;;;;4.55;2.08;;;17.50;99.90;;;;;;5075783;28;20196;-83
2022/06/19 02:26:07;;;;;;;2.47;1.80;;;17.40;99.90;;;;;;5092326;28;20189;-84
2022/06/19 02:28:37;;;;;;;3.67;2.30;;;17.40;99.90;;;;;;5093502;28;20166;-84
2022/06/19 02:31:06;;;;;;;3.50;2.17;;;17.40;99.90;;;;;;5093513;28;20198;-83
2022/06/19 02:33:38;;;;;;;4.53;2.20;;;17.50;99.90;;;;;;5092830;28;20174;-83
2022/06/19 02:36:35;;;;;;;3.70;2.20;;;17.40;99.90;;;;;;5093141;28;20182;-83
2022/06/19 02:39:26;;;;;;;2.45;1.95;;;17.50;99.90;;;;;;5091558;28;20178;-83
2022/06/19 02:42:03;;;;;;;2.63;2.08;;;17.40;99.90;;;;;;5093090;28;20170;-83
2022/06/19 02:44:38;;;;;;;2.38;1.98;;;17.40;99.90;;;;;;5091781;28;20185;-83
2022/06/19 02:47:04;;;;;;;3.13;2.33;;;17.50;99.90;;;;;;5093508;28;20162;-83
2022/06/19 02:49:30;;;;;;;2.45;1.98;;;17.50;99.90;;;;;;5093084;28;20217;-83
2022/06/19 02:51:55;;;;;;;3.03;2.13;;;17.50;99.90;;;;;;5092200;28;20525;-83
2022/06/19 02:54:21;;;;;;;2.75;2.17;;;17.50;99.90;;;;;;5092286;28;20277;-83
2022/06/19 02:56:47;;;;;;;2.53;2.28;;;17.50;99.90;;;;;;5093099;28;20186;-84
2022/06/19 02:59:12;;;;;;;3.40;2.30;;;17.50;99.90;;;;;;5092708;28;20205;-84
2022/06/19 03:01:39;;;;;;;2.63;2.08;;;17.50;99.90;;;;;;5094667;28;20178;-82
2022/06/19 03:04:05;;;;;;;3.08;2.40;;;17.50;99.90;;;;;;5105683;28;20185;-82
2022/06/19 03:06:31;;;;;;;3.00;2.40;;;17.50;99.90;;;;;;5104834;28;20190;-83
2022/06/19 03:08:56;;;;;;;3.75;2.70;;;17.50;99.90;;;;;;5105453;28;20186;-82
2022/06/19 03:11:22;;;;;;;2.58;2.00;;;17.60;99.90;;;;;;5106778;28;20232;-82
2022/06/19 03:13:49;;;;;;;3.70;2.58;;;17.60;99.90;;;;;;5103053;28;20567;-83
2022/06/19 03:16:14;;;;;;;3.72;2.45;;;17.60;99.90;;;;;;5091586;28;20545;-84
2022/06/19 03:18:40;;;;;;;3.58;2.25;;;17.50;99.90;;;;;;5092039;28;20183;-84
2022/06/19 03:21:06;;;;;;;2.10;1.80;;;17.60;99.90;;;;;;5092067;28;20187;-84
2022/06/19 03:23:31;;;;;;;3.58;2.85;;;17.60;99.90;;;;;;5092727;28;20644;-84
2022/06/19 03:25:57;;;;;;;2.58;2.30;;;17.60;99.90;;;;;;5091685;28;20651;-83
2022/06/19 03:28:23;;;;;;;2.25;2.05;;;17.60;99.90;;;;;;5093164;28;20206;-83
2022/06/19 03:30:55;;;;;;;2.20;1.85;;;17.60;99.90;;;;;;5091672;28;20599;-83
2022/06/19 03:33:20;;;;;;;2.90;2.33;;;17.70;99.90;;;;;;5092709;28;20175;-83
2022/06/19 03:35:46;;;;;;;2.17;1.98;;;17.70;99.90;;;;;;5091356;28;20195;-84
2022/06/19 03:38:12;;;;;;;3.13;2.40;;;17.70;99.90;;;;;;5074692;28;20550;-83
2022/06/19 03:40:37;;;;;;;3.22;2.50;;;17.80;99.90;;;;;;5092435;28;20240;-83
2022/06/19 03:43:03;;;;;;;2.17;1.98;;;17.80;99.90;;;;;;5092762;28;20236;-84
2022/06/19 03:45:28;;;;;;;2.67;2.20;;;17.80;99.90;;;;;;5094090;28;20218;-83
2022/06/19 03:47:54;;;;;;;2.97;2.08;;;17.90;99.90;;;;;;5096449;28;20200;-85
2022/06/19 03:50:19;;;;;;;3.95;2.45;;;17.80;99.90;;;;;;5078177;28;20226;-84
2022/06/19 03:52:46;;;;;;;4.20;2.45;;;17.90;99.90;;;;;;5096753;28;20232;-84
2022/06/19 03:55:13;;;;;;;3.80;2.40;;;18.00;99.90;;;;;;5095320;28;20175;-82
2022/06/19 03:57:39;;;;;;;3.90;2.63;;;18.00;99.90;;;;;;5095810;28;20251;-82
2022/06/19 04:00:05;;;;;;;2.55;2.03;;;18.10;99.90;;;;;;5096300;28;20182;-82
2022/06/19 04:02:30;;;;;;;5.57;2.47;;;18.10;99.90;;;;;;5096043;28;20175;-83
2022/06/19 04:04:56;;;;;;;3.63;2.42;;;18.10;99.90;;;;;;5096157;28;20592;-82
2022/06/19 04:07:22;;;;;;;3.85;2.47;;;18.20;99.90;;;;;;5095995;28;20178;-83
2022/06/19 04:09:47;;;;;;;3.53;2.65;;;18.20;99.90;;;;;;5095987;28;20658;-82
2022/06/19 04:12:13;;;;;;;5.13;2.38;;;18.30;99.90;;;;;;5096147;28;20235;-82
2022/06/19 04:14:39;;;;;;;2.53;2.25;;;18.30;99.90;;;;;;5095958;28;20183;-82
2022/06/19 04:17:06;;;;;;;3.33;2.67;;;18.40;99.90;;;;;;5095866;28;20193;-82
2022/06/19 04:19:32;;;;;;;3.53;2.38;;;18.40;99.90;;;;;;5094520;28;20194;-83
2022/06/19 04:21:57;;;;;;;2.47;2.25;;;18.50;99.90;;;;;;5095534;28;20186;-83
2022/06/19 04:24:23;;;;;;;2.38;2.03;;;18.60;99.90;;;;;;5076567;28;20240;-84
2022/06/19 04:26:49;;;;;;;4.88;2.53;;;18.70;99.90;;;;;;5074892;28;20175;-82
2022/06/19 04:29:17;;;;;;;3.55;2.17;;;18.80;99.90;;;;;;5083800;28;20687;-82
2022/06/19 04:31:42;;;;;;;3.35;2.35;;;18.80;99.90;;;;;;5094278;28;20233;-82
2022/06/19 04:34:09;;;;;;;3.70;2.75;;;18.90;99.90;;;;;;5094380;28;20214;-82
2022/06/19 04:36:35;;;;;;;2.88;2.13;;;18.90;99.90;;;;;;5094348;28;20166;-83
2022/06/19 04:39:01;;;;;;;3.30;2.17;;;19.00;99.90;;;;;;5095220;28;20724;-85
2022/06/19 04:41:36;;;;;;;2.75;2.33;;;19.10;99.90;;;;;;5093556;28;20195;-85
2022/06/19 04:44:03;;;;;;;3.58;2.30;;;19.10;99.90;;;;;;5094141;28;20243;-85
2022/06/19 04:46:28;;;;;;;5.28;2.33;;;19.10;99.90;;;;;;5089774;28;20187;-85
2022/06/19 04:48:54;;;;;;;3.25;2.70;;;19.20;99.90;;;;;;5073203;28;20194;-83
2022/06/19 04:51:20;;;;;;;4.30;2.40;;;19.20;99.90;;;;;;5061717;28;20199;-84
2022/06/19 04:53:46;;;;;;;4.35;2.47;;;19.20;99.90;;;;;;5093039;28;20181;-84
2022/06/19 04:56:13;;;;;;;7.28;3.10;;;19.30;99.90;;;;;;5093742;28;20183;-82
2022/06/19 04:58:40;;;;;;;3.78;2.90;;;19.30;99.90;;;;;;5094312;28;20233;-83
2022/06/19 05:01:12;;;;;;;4.32;2.45;;;19.30;99.90;;;;;;5092733;28;20178;-84
2022/06/19 05:03:38;;;;;;;3.80;2.30;;;19.40;99.90;;;;;;5092026;28;20571;-84
2022/06/19 05:06:04;;;;;;;4.85;3.00;;;19.50;99.90;;;;;;5094426;28;20230;-83
2022/06/19 05:08:30;;;;;;;2.60;2.40;;;19.50;99.90;;;;;;5093904;28;20269;-83
2022/06/19 05:10:56;;;;;;;2.38;2.10;;;19.70;99.90;;;;;;5092566;28;20305;-83
2022/06/19 05:13:23;;;;;;;3.72;2.63;;;19.70;99.90;;;;;;5091781;28;20186;-83
2022/06/19 05:15:49;;;;;;;4.50;2.90;;;19.80;99.90;;;;;;5092987;28;20182;-84
2022/06/19 05:18:17;;;;;;;8.80;3.00;;;19.90;99.90;;;;;;5093057;28;20214;-84
2022/06/19 05:20:42;;;;;;;3.85;2.53;;;19.90;99.90;;;;;;5090399;28;20187;-84
2022/06/19 05:23:09;;;;;;;4.75;2.60;;;19.90;99.90;;;;;;5075291;28;20243;-83
2022/06/19 05:25:35;;;;;;;3.25;2.33;;;20.10;99.90;;;;;;5091299;28;20273;-84
2022/06/19 05:28:01;;;;;;;3.70;2.42;;;20.20;99.90;;;;;;5091280;28;20201;-83
2022/06/19 05:30:27;;;;;;;6.47;2.80;;;20.30;99.90;;;;;;5092441;28;20690;-84
2022/06/19 05:32:52;;;;;;;4.55;2.65;;;20.40;99.90;;;;;;5088445;28;20190;-85
2022/06/19 05:35:18;;;;;;;3.75;2.58;;;20.50;99.90;;;;;;5092688;28;20183;-83
2022/06/19 05:37:44;;;;;;;4.22;2.45;;;20.50;99.90;;;;;;5091610;28;20714;-84
2022/06/19 05:40:10;;;;;;;5.18;2.70;;;20.60;99.90;;;;;;5058103;28;20259;-84
2022/06/19 05:42:36;;;;;;;2.45;2.00;;;20.70;99.90;;;;;;5091457;28;20269;-84
2022/06/19 05:45:03;;;;;;;5.05;3.25;;;20.80;99.90;;;;;;5075194;28;20181;-82
2022/06/19 05:47:28;;;;;;;3.97;2.55;;;20.90;99.90;;;;;;5091213;28;20657;-85
2022/06/19 05:49:56;;;;;;;3.65;2.60;;;21.00;99.90;;;;;;5093330;28;20257;-85
2022/06/19 05:52:24;;;;;;;3.72;2.35;;;21.10;99.90;;;;;;5091854;28;20202;-85
2022/06/19 05:54:51;;;;;;;6.65;2.83;;;21.20;99.90;;;;;;5092801;28;20186;-84
2022/06/19 05:57:17;;;;;;;3.58;2.70;;;21.40;99.90;;;;;;5093484;28;20193;-84
2022/06/19 05:59:43;;;;;;;3.15;2.33;;;21.40;99.90;;;;;;5091297;28;20635;-84
2022/06/19 06:02:13;;;;;;;4.40;2.65;;;21.60;99.90;;;;;;5092906;28;20537;-84
2022/06/19 06:04:39;;;;;;;6.70;2.13;;;21.60;99.90;;;;;;5090980;28;20639;-84
2022/06/19 06:07:11;;;;;;;4.03;2.75;;;21.80;99.90;;;;;;5091319;28;20247;-84
2022/06/19 06:09:37;;;;;;;4.18;2.00;;;21.90;99.90;;;;;;5074463;28;20190;-86
2022/06/19 06:12:06;;;;;;;2.70;2.22;;;22.00;99.90;;;;;;5073706;28;20353;-85
2022/06/19 06:14:32;;;;;;;4.22;2.50;;;22.10;99.90;;;;;;5081892;28;20178;-86
2022/06/19 06:16:58;;;;;;;2.90;1.80;;;22.20;99.90;;;;;;5092766;28;20202;-85
2022/06/19 06:19:24;;;;;;;5.40;2.63;;;22.30;99.90;;;;;;5058103;28;20174;-86
2022/06/19 06:21:49;;;;;;;2.65;2.20;;;22.40;99.90;;;;;;5091487;28;20277;-86
2022/06/19 06:24:16;;;;;;;3.13;2.10;;;22.40;99.90;;;;;;5091381;28;20190;-84
2022/06/19 06:26:42;;;;;;;4.68;2.60;;;22.80;99.90;;;;;;5081310;28;20183;-85
2022/06/19 06:29:08;;;;;;;3.30;1.90;;;22.60;99.90;;;;;;5091804;28;20753;-84
2022/06/19 06:31:34;;;;;;;2.75;2.20;;;22.70;99.90;;;;;;5074288;28;20202;-85
2022/06/19 06:34:00;;;;;;;2.78;2.15;;;22.80;99.90;;;;;;5089930;28;20619;-85
2022/06/19 06:36:27;;;;;;;3.53;2.17;;;22.90;99.90;;;;;;5091576;28;20261;-85
2022/06/19 06:38:52;;;;;;;2.67;2.10;;;23.00;99.90;;;;;;5091167;28;20511;-85
2022/06/19 06:41:19;;;;;;;2.35;2.00;;;23.10;99.90;;;;;;5091001;28;20227;-85
2022/06/19 06:43:46;;;;;;;2.92;2.28;;;23.20;99.90;;;;;;5092484;28;20186;-86
2022/06/19 06:46:20;;;;;;;3.60;2.33;;;23.40;99.90;;;;;;5091961;28;20269;-86
2022/06/19 06:48:48;;;;;;;2.13;1.92;;;23.40;99.90;;;;;;5091892;28;20178;-86
2022/06/19 06:51:16;;;;;;;2.10;1.92;;;23.50;99.90;;;;;;5092807;28;20281;-87
2022/06/19 06:53:42;;;;;;;2.90;2.33;;;23.60;99.90;;;;;;5091612;28;20193;-86
2022/06/19 06:56:08;;;;;;;1.88;1.70;;;23.70;99.90;;;;;;5090753;28;20170;-87
2022/06/19 06:58:34;;;;;;;2.10;1.90;;;23.70;99.90;;;;;;5092887;28;20608;-85
2022/06/19 07:01:11;;;;;;;2.17;1.88;;;23.80;99.90;;;;;;5090807;28;20199;-85
2022/06/19 07:03:36;;;;;;;3.13;2.10;;;23.70;99.90;;;;;;5092334;28;20159;-85
2022/06/19 07:06:02;;;;;;;3.60;2.47;;;23.70;99.90;;;;;;5074234;28;20182;-85
2022/06/19 07:08:28;;;;;;;2.10;1.60;;;23.70;99.90;;;;;;5092453;28;20254;-84
2022/06/19 07:10:53;;;;;;;2.95;1.80;;;23.70;99.90;;;;;;5089958;28;20286;-84
2022/06/19 07:13:19;;;;;;;4.78;2.38;;;23.90;99.90;;;;;;5089948;28;20187;-84
2022/06/19 07:15:44;;;;;;;3.58;2.17;;;23.90;99.90;;;;;;5073055;28;20214;-83
2022/06/19 07:18:11;;;;;;;2.53;2.03;;;24.00;99.90;;;;;;5090391;28;20202;-85
2022/06/19 07:20:37;;;;;;;3.60;2.00;;;24.20;99.90;;;;;;5093478;28;20179;-85
2022/06/19 07:23:05;;;;;;;3.53;2.10;;;24.20;99.90;;;;;;5095620;28;20209;-84
2022/06/19 07:25:31;;;;;;;2.50;1.90;;;24.30;99.90;;;;;;5091853;28;20174;-84
2022/06/19 07:27:59;;;;;;;2.13;1.90;;;24.40;99.90;;;;;;5095820;28;20278;-84
2022/06/19 07:30:26;;;;;;;2.35;1.75;;;24.50;99.90;;;;;;5093749;28;20229;-84
2022/06/19 07:32:52;;;;;;;2.55;2.28;;;24.50;99.90;;;;;;5091314;28;20265;-84
2022/06/19 07:35:18;;;;;;;2.47;1.85;;;24.60;99.90;;;;;;5094030;28;20231;-85
2022/06/19 07:37:44;;;;;;;2.15;1.95;;;24.70;99.90;;;;;;5093502;28;20201;-85
2022/06/19 07:40:15;;;;;;;3.90;2.53;;;24.70;99.90;;;;;;5099323;28;20619;-85
2022/06/19 07:42:42;;;;;;;2.85;1.88;;;24.80;99.90;;;;;;5095708;28;20159;-85
2022/06/19 07:45:08;;;;;;;5.00;2.60;;;24.80;99.90;;;;;;5095323;28;20228;-84
2022/06/19 07:50:19;;;;;;;4.22;2.20;;;24.80;99.90;;;;;;5095688;28;20170;-85
2022/06/19 07:52:50;;;;;;;2.60;2.10;;;24.90;99.90;;;;;;5094472;28;20551;-85
2022/06/19 07:55:22;;;;;;;2.97;2.00;;;25.00;99.90;;;;;;5094976;28;20615;-84
2022/06/19 07:57:48;;;;;;;2.20;2.00;;;25.00;99.90;;;;;;5092041;28;20167;-85
2022/06/19 08:00:18;;;;;;;2.25;2.00;;;25.20;99.90;;;;;;5093151;28;20294;-86
2022/06/19 08:02:49;;;;;;;2.38;2.00;;;25.40;99.90;;;;;;5095172;28;20171;-85
2022/06/19 08:05:15;;;;;;;5.68;2.05;;;25.50;99.90;;;;;;5095043;28;20178;-85
2022/06/19 08:07:41;;;;;;;4.00;1.90;;;25.50;99.90;;;;;;5094310;28;20184;-84
2022/06/19 08:10:09;;;;;;;1.90;1.52;;;25.50;99.90;;;;;;5077708;28;20275;-84
2022/06/19 08:12:35;;;;;;;2.10;1.90;;;25.70;99.90;;;;;;5095649;28;20194;-84
2022/06/19 08:15:01;;;;;;;6.00;2.00;;;25.80;99.90;;;;;;5094030;28;20194;-83
2022/06/19 08:17:27;;;;;;;2.30;2.10;;;25.90;99.90;;;;;;5093857;28;20171;-87
2022/06/19 08:19:53;;;;;;;2.03;1.92;;;25.90;99.90;;;;;;5090765;28;20179;-84
2022/06/19 08:22:18;;;;;;;3.28;2.50;;;25.90;99.90;;;;;;5076776;28;20185;-84
2022/06/19 08:24:44;;;;;;;2.25;1.83;;;25.90;99.90;;;;;;5076516;28;20635;-83
2022/06/19 08:27:09;;;;;;;2.22;1.92;;;25.90;99.90;;;;;;5092867;28;20234;-83
2022/06/19 08:29:36;;;;;;;3.50;2.08;;;26.00;99.90;;;;;;5094642;28;20301;-83
2022/06/19 08:32:02;;;;;;;3.50;1.50;;;26.10;99.90;;;;;;5091972;28;20218;-85
2022/06/19 08:34:28;;;;;;;2.47;1.75;;;26.20;99.90;;;;;;5094233;28;20181;-84
2022/06/19 08:36:55;;;;;;;2.78;1.95;;;26.30;99.90;;;;;;5092721;28;20635;-83
2022/06/19 08:39:22;;;;;;;1.85;1.73;;;26.40;99.60;;;;;;5093965;28;20179;-86
2022/06/19 08:42:22;;;;;;;3.75;1.90;;;26.60;99.00;;;;;;5076252;28;20289;-86
2022/06/19 08:45:27;;;;;;;1.80;1.70;;;26.70;97.90;;;;;;5093464;28;20175;-85
2022/06/19 08:48:14;;;;;;;2.25;1.77;;;26.80;97.30;;;;;;5091394;28;20192;-85
2022/06/19 08:50:57;;;;;;;3.85;1.75;;;26.90;96.90;;;;;;5092921;28;20210;-88
2022/06/19 08:53:37;;;;;;;2.03;1.80;;;26.90;97.60;;;;;;5089595;28;20765;-84
2022/06/19 08:56:13;;;;;;;1.98;1.77;;;27.00;96.20;;;;;;5092243;28;20209;-85
2022/06/19 08:58:39;;;;;;;3.20;1.65;;;27.00;96.30;;;;;;5092878;28;20178;-85
2022/06/19 09:01:32;;;;;;;2.30;1.58;;;27.00;96.10;;;;;;5093639;28;20189;-85
2022/06/19 09:07:27;;;;;;;3.75;1.80;;;27.10;96.90;;;;;;5086576;28;20599;-83
2022/06/19 09:10:26;;;;;;;3.33;1.55;;;27.20;96.30;;;;;;5092374;28;20194;-84
2022/06/19 09:13:21;;;;;;;1.98;1.60;;;27.20;95.30;;;;;;5093554;28;20189;-84
2022/06/19 09:16:05;;;;;;;2.50;1.85;;;27.40;94.90;;;;;;5067683;28;20197;-84
2022/06/19 09:18:31;;;;;;;1.63;1.52;;;27.50;93.80;;;;;;5092226;28;20186;-85
2022/06/19 09:21:09;;;;;;;2.72;1.75;;;27.50;93.30;;;;;;5092135;28;20224;-84
2022/06/19 09:23:49;;;;;;;1.58;1.40;;;27.50;93.10;;;;;;5087342;28;20227;-85
2022/06/19 09:26:19;;;;;;;2.63;1.38;;;27.70;94.20;;;;;;5091032;28;20170;-85
2022/06/19 09:29:00;;;;;;;2.38;1.65;;;28.00;92.00;;;;;;5093300;28;20711;-85
2022/06/19 09:31:32;;;;;;;3.53;1.80;;;28.00;91.70;;;;;;5091458;28;20206;-84
2022/06/19 09:34:01;;;;;;;4.18;1.90;;;28.30;92.30;;;;;;5092425;28;20209;-84
2022/06/19 09:36:55;;;;;;;1.48;1.38;;;28.40;91.00;;;;;;5092472;28;20178;-84
2022/06/19 09:39:34;;;;;;;1.70;1.60;;;28.40;91.10;;;;;;5106303;28;20175;-84
2022/06/19 09:42:09;;;;;;;1.70;1.45;;;28.40;91.30;;;;;;5091092;28;20217;-83
2022/06/19 09:44:54;;;;;;;2.17;1.85;;;28.50;89.10;;;;;;5090617;28;20215;-84
2022/06/19 09:47:52;;;;;;;1.40;1.30;;;28.50;87.50;;;;;;5107597;28;20186;-84
2022/06/19 09:50:33;;;;;;;1.42;1.30;;;28.70;86.40;;;;;;5091234;28;20627;-85
2022/06/19 09:53:08;;;;;;;1.40;1.30;;;28.60;86.80;;;;;;5089119;28;20186;-86
2022/06/19 09:55:57;;;;;;;1.67;1.50;;;28.70;83.60;;;;;;5090964;28;20190;-87
2022/06/19 09:58:29;;;;;;;2.25;1.63;;;28.60;85.40;;;;;;5107715;28;20174;-85
2022/06/19 10:00:57;;;;;;;3.47;1.60;;;28.70;83.90;;;;;;5091803;28;20182;-85
2022/06/19 10:03:34;;;;;;;1.95;1.48;;;28.70;83.80;;;;;;5092942;28;20174;-84
2022/06/19 10:06:17;;;;;;;1.20;1.10;;;28.70;82.20;;;;;;5091763;28;20188;-85
2022/06/19 10:08:51;;;;;;;1.50;1.40;;;28.90;78.10;;;;;;5092457;28;20162;-85
2022/06/19 10:11:22;;;;;;;6.10;1.20;;;28.80;78.00;;;;;;5091795;28;20241;-84
2022/06/19 10:14:05;;;;;;;1.65;1.50;;;28.80;80.10;;;;;;5105356;28;20175;-83
2022/06/19 10:16:45;;;;;;;1.88;1.50;;;29.00;79.10;;;;;;5113290;28;20209;-86
2022/06/19 10:19:37;;;;;;;1.75;1.50;;;29.10;76.20;;;;;;5115050;28;20166;-86
2022/06/19 10:22:33;;;;;;;3.92;1.83;;;29.10;77.00;;;;;;5113995;28;20285;-87
2022/06/19 10:25:14;;;;;;;1.60;1.50;;;29.20;77.40;;;;;;5102559;28;20202;-84
2022/06/19 10:27:42;;;;;;;2.03;1.05;;;29.40;79.30;;;;;;5091675;28;20239;-84
2022/06/19 10:30:24;;;;;;;1.50;1.40;;;29.50;77.40;;;;;;5080658;28;20552;-84
2022/06/19 10:33:12;;;;;;;1.30;1.20;;;29.50;75.50;;;;;;5091838;28;20217;-83
2022/06/19 10:35:42;;;;;;;1.63;1.40;;;29.50;72.10;;;;;;5091024;28;20182;-84
2022/06/19 10:38:23;;;;;;;1.52;1.30;;;29.60;75.60;;;;;;5092494;28;20171;-85
2022/06/19 10:41:03;;;;;;;1.25;1.10;;;29.70;73.40;;;;;;5092700;28;20253;-85
2022/06/19 10:43:52;;;;;;;2.42;1.48;;;29.60;70.50;;;;;;5091996;28;20168;-85
2022/06/19 10:46:18;;;;;;;3.90;2.58;;;29.70;72.80;;;;;;5090927;28;20185;-87
2022/06/19 10:49:05;;;;;;;1.48;1.30;;;29.80;70.70;;;;;;5092241;28;20220;-86
2022/06/19 10:52:00;;;;;;;3.30;1.25;;;30.00;70.20;;;;;;5092213;28;20202;-86
2022/06/19 10:54:34;;;;;;;2.28;1.40;;;30.30;71.50;;;;;;5090575;28;20187;-84
2022/06/19 10:57:36;;;;;;;1.58;1.30;;;30.50;71.30;;;;;;5092867;28;20162;-84
2022/06/19 11:00:04;;;;;;;1.25;1.15;;;30.40;69.20;;;;;;5092133;28;20158;-86
2022/06/19 11:05:37;;;;;;;1.30;1.20;;;30.30;68.60;;;;;;5090049;28;20215;-85
2022/06/19 11:08:03;;;;;;;4.63;1.80;;;30.60;71.00;;;;;;5091513;28;20167;-85
2022/06/19 11:10:37;;;;;;;1.83;1.42;;;30.80;68.70;;;;;;5090788;28;20265;-85
2022/06/19 11:13:05;;;;;;;2.00;1.45;;;31.10;67.80;;;;;;5092244;28;20158;-85
2022/06/19 11:15:33;;;;;;;1.33;1.23;;;31.20;66.10;;;;;;5090858;28;20194;-86
2022/06/19 11:18:20;;;;;;;1.40;1.20;;;30.90;64.20;;;;;;5090956;28;20189;-86
2022/06/19 11:21:06;;;;;;;1.75;1.50;;;30.70;66.50;;;;;;5107618;28;20186;-87
2022/06/19 11:23:39;;;;;;;1.15;1.05;;;30.70;66.90;;;;;;5090261;28;20178;-86
2022/06/19 11:26:08;;;;;;;2.63;1.77;;;30.70;65.80;;;;;;5091850;28;20531;-84
2022/06/19 11:28:58;;;;;;;1.65;1.38;;;30.80;67.90;;;;;;5090197;28;20246;-84
2022/06/19 11:31:32;;;;;;;1.40;1.30;;;31.00;67.20;;;;;;5092177;28;20210;-86
2022/06/19 11:34:43;;;;;;;5.25;1.80;;;30.90;64.60;;;;;;5091104;28;20183;-85
2022/06/19 11:36:49;;;;;;;1.90;1.60;;;30.50;66.60;;;;;;5078012;28;20253;-86
2022/06/19 11:39:34;;;;;;;1.35;1.10;;;30.50;66.20;;;;;;5090971;28;20175;-85
2022/06/19 11:42:17;;;;;;;1.58;1.48;;;30.70;69.50;;;;;;5088518;28;20191;-86
2022/06/19 11:45:01;;;;;;;1.55;1.40;;;31.00;68.80;;;;;;5089095;28;20198;-86
2022/06/19 11:47:37;;;;;;;1.75;1.55;;;31.30;66.80;;;;;;5087955;28;20218;-88
2022/06/19 11:50:16;;;;;;;3.95;1.60;;;31.50;64.40;;;;;;5089299;28;20173;-86
2022/06/19 11:52:51;;;;;;;1.63;1.40;;;31.10;65.30;;;;;;5089316;28;20245;-87
2022/06/19 11:55:36;;;;;;;1.48;1.38;;;31.00;65.80;;;;;;5088940;28;20173;-86
2022/06/19 11:58:30;;;;;;;2.20;1.98;;;30.80;65.40;;;;;;5088142;28;20190;-86
2022/06/19 12:01:09;;;;;;;1.50;1.40;;;30.80;66.80;;;;;;5089556;28;20186;-85
2022/06/19 12:03:53;;;;;;;1.52;1.42;;;30.70;66.30;;;;;;5087507;28;20828;-86
2022/06/19 12:06:35;;;;;;;5.25;1.63;;;30.80;67.40;;;;;;5088369;28;20174;-84
2022/06/19 12:09:04;;;;;;;1.48;1.20;;;31.00;65.50;;;;;;5107067;28;20182;-87
2022/06/19 12:11:59;;;;;;;2.13;1.27;;;31.00;64.20;;;;;;5093135;28;20195;-86
2022/06/19 12:14:31;;;;;;;1.40;1.30;;;31.20;64.70;;;;;;5092401;28;20199;-85
2022/06/19 12:17:16;;;;;;;3.25;1.73;;;31.30;64.60;;;;;;5091343;28;20206;-84
2022/06/19 12:19:54;;;;;;;1.80;1.70;;;31.40;65.00;;;;;;5092441;28;20170;-86
2022/06/19 12:22:49;;;;;;;1.40;1.30;;;31.50;65.50;;;;;;5091381;28;20174;-87
2022/06/19 12:25:33;;;;;;;1.75;1.48;;;31.40;61.20;;;;;;5091618;28;20229;-88
2022/06/19 12:28:39;;;;;;;3.33;1.73;;;31.20;62.90;;;;;;5090521;28;20166;-87
2022/06/19 12:31:13;;;;;;;2.30;1.33;;;31.30;64.10;;;;;;5082576;28;20578;-86
2022/06/19 12:34:01;;;;;;;2.88;1.40;;;31.40;63.10;;;;;;5109280;28;20170;-85
2022/06/19 12:36:34;;;;;;;3.90;1.95;;;31.60;62.10;;;;;;5092817;28;20178;-85
2022/06/19 12:39:00;;;;;;;1.52;1.38;;;31.60;60.70;;;;;;5088650;28;20197;-85
2022/06/19 12:41:59;;;;;;;1.70;1.30;;;31.40;61.10;;;;;;5090668;28;20217;-87
2022/06/19 12:44:51;;;;;;;1.52;1.40;;;31.40;63.20;;;;;;5084873;28;20193;-86
2022/06/19 12:47:43;;;;;;;3.92;1.45;;;31.40;60.80;;;;;;5091489;28;20183;-86
2022/06/19 12:50:26;;;;;;;2.60;1.30;;;31.20;59.30;;;;;;5091671;28;20178;-86
2022/06/19 12:53:00;;;;;;;1.45;1.35;;;31.10;57.70;;;;;;5091261;28;20190;-87
2022/06/19 12:55:44;;;;;;;1.20;1.10;;;31.20;57.80;;;;;;5098065;28;20175;-87
2022/06/19 12:58:28;;;;;;;1.13;1.02;;;31.30;58.80;;;;;;5098376;28;20163;-88
2022/06/19 13:01:03;;;;;;;4.50;1.23;;;31.50;57.90;;;;;;5098684;28;20178;-86
2022/06/19 13:03:44;;;;;;;2.17;1.40;;;31.50;57.10;;;;;;5099151;28;20178;-87
2022/06/19 13:06:31;;;;;;;2.30;1.20;;;31.50;57.80;;;;;;5103143;28;20166;-90
2022/06/19 13:09:18;;;;;;;3.15;1.40;;;31.60;58.10;;;;;;5100582;28;20374;-85
2022/06/19 13:12:10;;;;;;;1.10;1.00;;;31.70;58.20;;;;;;5100073;28;20202;-85
2022/06/19 13:14:49;;;;;;;1.48;1.10;;;31.70;58.10;;;;;;5095191;28;20174;-86
2022/06/19 13:17:24;;;;;;;3.50;1.00;;;31.90;58.00;;;;;;5102942;28;20155;-85
2022/06/19 13:19:57;;;;;;;1.75;1.08;;;32.00;56.80;;;;;;5106832;28;20225;-86
2022/06/19 13:23:00;;;;;;;1.33;1.13;;;31.90;55.40;;;;;;5099053;28;20174;-86